createdAt,value
2022-10-05T00:08:46.758Z,100244.25
2022-10-05T00:12:56.064Z,100233.31
2022-10-05T00:16:51.576Z,100229.82
2022-10-05T00:21:01.761Z,100231.75
2022-10-05T00:24:58.230Z,100233.63
2022-10-05T00:29:29.750Z,100230.07
2022-10-05T00:33:14.904Z,100225.64
2022-10-05T00:37:18.114Z,100217.50
2022-10-05T00:41:55.607Z,100208.26
2022-10-05T00:50:28.953Z,100206.38
2022-10-05T00:54:33.681Z,100208.59
2022-10-05T00:58:41.294Z,100209.94
2022-10-05T01:02:42.012Z,100209.71
2022-10-05T01:06:51.540Z,100206.85
2022-10-05T01:10:49.671Z,100193.42
2022-10-05T01:15:08.708Z,100186.88
2022-10-05T01:18:41.478Z,100192.84
2022-10-05T01:21:58.089Z,100184.36
2022-10-05T01:25:26.203Z,100181.85
2022-10-05T01:29:03.050Z,100179.85
2022-10-05T01:32:32.499Z,100189.04
2022-10-05T01:36:44.969Z,100192.39
2022-10-05T01:43:28.265Z,100189.20
2022-10-05T01:46:37.680Z,100181.62
2022-10-05T01:51:05.140Z,100178.69
2022-10-05T01:55:03.987Z,100167.61
2022-10-05T01:59:05.310Z,100168.46
2022-10-05T02:02:42.049Z,100171.13
2022-10-05T02:07:09.589Z,100180.20
2022-10-05T02:15:41.241Z,100187.45
2022-10-05T02:19:39.439Z,100190.02
2022-10-05T02:23:20.086Z,100192.30
2022-10-05T02:26:41.302Z,100180.33
2022-10-05T02:30:43.658Z,100173.13
2022-10-05T02:33:53.375Z,100177.72
2022-10-05T02:37:20.967Z,100182.45
2022-10-05T02:45:36.361Z,100178.48
2022-10-05T02:49:25.713Z,100187.50
2022-10-05T02:53:02.206Z,100189.25
2022-10-05T02:56:45.508Z,100169.71
2022-10-05T03:00:35.522Z,100165.85
2022-10-05T03:04:24.939Z,100166.72
2022-10-05T03:07:59.573Z,100163.27
2022-10-05T03:11:51.482Z,100162.70
2022-10-05T03:15:54.156Z,100170.27
2022-10-05T03:19:46.408Z,100173.63
2022-10-05T03:23:57.026Z,100179.95
2022-10-05T03:27:34.484Z,100171.02
2022-10-05T03:31:41.168Z,100163.92
2022-10-05T03:35:31.062Z,100168.42
2022-10-05T03:39:02.543Z,100164.27
2022-10-05T03:43:15.331Z,100162.69
2022-10-05T03:47:17.552Z,100164.45
2022-10-05T03:50:47.699Z,100161.83
2022-10-05T03:54:47.741Z,100156.98
2022-10-05T03:58:43.732Z,100160.08
2022-10-05T04:03:15.694Z,100158.71
2022-10-05T04:07:39.716Z,100159.96
2022-10-05T04:12:36.059Z,100165.16
2022-10-05T04:20:58.968Z,100159.23
2022-10-05T04:34:18.388Z,100155.66
2022-10-05T04:39:06.827Z,100156.80
2022-10-05T04:42:55.759Z,100156.02
2022-10-05T04:47:02.997Z,100155.80
2022-10-05T04:50:49.257Z,100151.39
2022-10-05T04:54:56.937Z,100145.04
2022-10-05T05:03:41.845Z,100146.44
2022-10-05T05:07:20.716Z,100150.10
2022-10-05T05:11:34.174Z,100146.10
2022-10-05T05:14:55.856Z,100147.69
2022-10-05T05:19:13.073Z,100144.31
2022-10-05T05:23:27.399Z,100140.83
2022-10-05T05:27:23.810Z,100144.43
2022-10-05T05:40:54.565Z,100147.05
2022-10-05T05:42:56.148Z,100140.66
2022-10-05T05:44:29.914Z,100147.30
2022-10-05T05:47:56.082Z,100146.89
2022-10-05T05:51:52.050Z,100145.89
2022-10-05T05:55:11.716Z,100147.91
2022-10-05T05:59:19.980Z,100151.45
2022-10-05T06:02:51.530Z,100149.92
2022-10-05T06:06:17.808Z,100151.20
2022-10-05T06:09:17.001Z,100158.45
2022-10-05T06:12:38.061Z,100158.20
2022-10-05T06:16:05.012Z,100156.77
2022-10-05T06:19:05.489Z,100150.08
2022-10-05T06:22:21.626Z,100159.63
2022-10-05T06:25:25.231Z,100165.70
2022-10-05T06:28:40.694Z,100163.09
2022-10-05T06:31:15.392Z,100158.89
2022-10-05T06:34:04.567Z,100156.53
2022-10-05T06:37:03.027Z,100153.33
2022-10-05T06:39:50.706Z,100152.55
2022-10-05T06:43:17.620Z,100147.23
2022-10-05T06:46:44.485Z,100140.89
2022-10-05T06:50:32.773Z,100140.95
2022-10-05T06:54:10.434Z,100141.68
2022-10-05T06:57:42.444Z,100146.46
2022-10-05T07:00:56.433Z,100147.42
2022-10-05T07:04:46.824Z,100152.54
2022-10-05T07:08:47.528Z,100157.08
2022-10-05T07:12:06.641Z,100155.92
2022-10-05T07:15:44.642Z,100157.62
2022-10-05T07:19:55.182Z,100154.83
2022-10-05T07:24:00.035Z,100149.69
2022-10-05T07:27:59.917Z,100153.21
2022-10-05T07:31:45.946Z,100157.37
2022-10-05T07:35:40.079Z,100155.77
2022-10-05T07:39:17.006Z,100149.84
2022-10-05T07:42:52.788Z,100150.92
2022-10-05T07:50:15.964Z,100149.42
2022-10-05T07:53:49.791Z,100144.77
2022-10-05T07:57:27.372Z,100144.56
2022-10-05T08:00:40.859Z,100135.13
2022-10-05T08:04:14.698Z,100139.58
2022-10-05T08:08:22.127Z,100141.41
2022-10-05T08:11:41.534Z,100144.09
2022-10-05T08:15:33.009Z,100147.23
2022-10-05T08:18:51.059Z,100145.02
2022-10-05T08:23:25.154Z,100142.64
2022-10-05T08:27:13.332Z,100142.66
2022-10-05T08:30:58.123Z,100140.20
2022-10-05T08:35:16.832Z,100141.25
2022-10-05T08:39:18.978Z,100145.05
2022-10-05T08:43:45.438Z,100150.58
2022-10-05T08:51:24.676Z,100138.24
2022-10-05T08:55:18.296Z,100138.86
2022-10-05T08:58:58.914Z,100135.60
2022-10-05T09:03:01.820Z,100134.36
2022-10-05T09:07:30.497Z,100129.39
2022-10-05T09:11:59.497Z,100124.70
2022-10-05T09:15:49.094Z,100113.43
2022-10-05T09:19:55.524Z,100111.09
2022-10-05T09:28:33.118Z,100110.31
2022-10-05T09:36:18.320Z,100101.10
2022-10-05T09:40:09.223Z,100101.15
2022-10-05T09:47:26.141Z,100087.59
2022-10-05T09:51:15.541Z,100090.35
2022-10-05T09:55:17.913Z,100088.35
2022-10-05T09:59:40.281Z,100084.41
2022-10-05T10:03:07.690Z,100087.42
2022-10-05T10:07:01.786Z,100083.48
2022-10-05T10:11:04.768Z,100076.83
2022-10-05T10:15:08.403Z,100067.62
2022-10-05T10:19:04.027Z,100070.08
2022-10-05T10:23:19.938Z,100061.56
2022-10-05T10:27:41.488Z,100050.95
2022-10-05T10:31:25.007Z,100044.59
2022-10-05T10:35:13.593Z,100044.77
2022-10-05T10:39:22.498Z,100044.98
2022-10-05T10:43:03.537Z,100049.30
2022-10-05T10:46:23.034Z,100053.71
2022-10-05T10:50:20.593Z,100053.77
2022-10-05T10:54:03.263Z,100044.38
2022-10-05T10:57:38.437Z,100039.96
2022-10-05T11:01:26.568Z,100035.75
2022-10-05T11:05:11.161Z,100031.83
2022-10-05T11:13:32.034Z,100033.18
2022-10-05T11:17:46.315Z,100031.08
2022-10-05T11:21:03.030Z,100034.17
2022-10-05T11:25:00.406Z,100031.61
2022-10-05T11:28:37.865Z,100029.52
2022-10-05T11:36:27.530Z,100021.73
2022-10-05T11:44:18.082Z,100017.76
2022-10-05T11:52:07.152Z,100012.73
2022-10-05T11:56:00.218Z,100010.52
2022-10-05T12:03:44.125Z,100006.52
2022-10-05T12:07:21.992Z,99992.56
2022-10-05T12:11:41.903Z,99992.50
2022-10-05T12:15:10.595Z,99989.19
2022-10-05T12:23:34.934Z,99995.29
2022-10-05T12:32:44.141Z,99992.23
2022-10-05T12:36:09.971Z,99982.95
2022-10-05T12:40:04.987Z,99984.71
2022-10-05T12:43:48.688Z,99983.16
2022-10-05T12:47:14.588Z,99982.21
2022-10-05T12:51:27.737Z,99980.84
2022-10-05T12:55:27.960Z,99977.27
2022-10-05T12:59:45.953Z,99973.43
2022-10-05T13:33:39.804Z,99951.89
2022-10-05T13:37:17.416Z,99946.27
2022-10-05T13:40:52.876Z,99942.34
2022-10-05T13:44:48.909Z,99931.30
2022-10-05T13:48:18.631Z,99931.67
2022-10-05T13:51:49.944Z,99927.64
2022-10-05T13:55:39.803Z,99919.23
2022-10-05T13:59:32.655Z,99918.98
2022-10-05T14:02:59.843Z,99903.77
2022-10-05T14:06:10.099Z,99903.73
2022-10-05T14:09:26.007Z,99898.68
2022-10-05T14:12:34.517Z,99896.34
2022-10-05T14:15:53.207Z,99894.59
2022-10-05T14:18:36.667Z,99894.63
2022-10-05T14:22:20.839Z,99890.31
2022-10-05T14:25:57.896Z,99894.64
2022-10-05T14:29:06.333Z,99897.45
2022-10-05T14:33:19.100Z,99895.49
2022-10-05T14:37:01.198Z,99892.19
2022-10-05T14:39:58.888Z,99899.29
2022-10-05T14:43:07.966Z,99900.52
2022-10-05T14:46:14.321Z,99897.73
2022-10-05T14:49:14.082Z,99897.14
2022-10-05T14:52:30.514Z,99897.23
2022-10-05T14:56:07.637Z,99901.35
2022-10-05T14:59:26.998Z,99901.37
2022-10-05T15:02:45.602Z,99900.03
2022-10-05T15:06:11.228Z,99901.76
2022-10-05T15:09:17.070Z,99899.45
2022-10-05T15:12:19.592Z,99894.52
2022-10-05T15:15:11.683Z,99890.69
2022-10-05T15:18:43.707Z,99887.32
2022-10-05T15:22:04.261Z,99885.70
2022-10-05T15:25:36.741Z,99881.64
2022-10-05T15:28:54.500Z,99885.07
2022-10-05T15:32:26.930Z,99877.64
2022-10-05T15:35:17.438Z,99878.70
2022-10-05T15:48:09.762Z,99875.48
2022-10-05T15:51:50.500Z,99871.06
2022-10-05T15:54:46.681Z,99870.44
2022-10-05T15:57:56.477Z,99871.12
2022-10-05T16:00:58.523Z,99871.01
2022-10-05T16:04:12.840Z,99874.55
2022-10-05T16:08:07.401Z,99873.63
2022-10-05T16:11:19.715Z,99875.52
2022-10-05T16:18:03.928Z,99874.66
2022-10-05T16:21:59.160Z,99875.65
2022-10-05T16:25:40.848Z,99876.36
2022-10-05T16:29:13.755Z,99880.46
2022-10-05T16:33:07.468Z,99882.77
2022-10-05T16:36:19.026Z,99879.09
2022-10-05T16:39:23.042Z,99876.51
2022-10-05T16:42:38.568Z,99872.61
2022-10-05T16:46:43.518Z,99878.74
2022-10-05T16:50:27.238Z,99879.39
2022-10-05T17:04:09.671Z,99882.81
2022-10-05T17:08:41.903Z,99879.20
2022-10-05T17:13:06.985Z,99883.33
2022-10-05T17:17:16.124Z,99884.02
2022-10-05T17:27:41.393Z,99889.88
2022-10-05T17:31:06.484Z,99886.78
2022-10-05T17:34:57.052Z,99885.98
2022-10-05T17:37:44.122Z,99883.42
2022-10-05T17:41:17.222Z,99879.98
2022-10-05T17:44:42.016Z,99881.80
2022-10-05T17:48:06.527Z,99876.38
2022-10-05T17:51:21.777Z,99872.96
2022-10-05T17:54:12.646Z,99879.27
2022-10-05T17:56:47.682Z,99871.13
2022-10-05T17:59:46.269Z,99868.46
2022-10-05T18:02:31.478Z,99867.92
2022-10-05T18:05:04.923Z,99868.94
2022-10-05T18:08:28.937Z,99872.01
2022-10-05T18:11:35.033Z,99879.09
2022-10-05T18:15:03.357Z,99877.02
2022-10-05T18:17:50.424Z,99879.74
2022-10-05T18:20:31.973Z,99880.70
2022-10-05T18:23:09.878Z,99878.42
2022-10-05T18:26:27.986Z,99874.23
2022-10-05T18:29:39.436Z,99872.54
2022-10-05T18:32:43.766Z,99872.13
2022-10-05T18:35:39.673Z,99872.64
2022-10-05T18:38:31.488Z,99871.88
2022-10-05T18:41:23.591Z,99872.40
2022-10-05T18:44:15.894Z,99871.63
2022-10-05T18:47:15.479Z,99866.29
2022-10-05T18:50:02.897Z,99864.73
2022-10-05T18:53:02.682Z,99866.73
2022-10-05T18:55:40.172Z,99862.10
2022-10-05T18:59:12.774Z,99866.46
2022-10-05T19:02:13.146Z,99865.75
2022-10-05T19:05:47.964Z,99867.98
2022-10-05T19:08:51.464Z,99870.09
2022-10-05T19:12:16.186Z,99870.96
2022-10-05T19:15:06.002Z,99871.91
2022-10-05T19:18:13.568Z,99871.27
2022-10-05T19:21:15.778Z,99872.67
2022-10-05T19:24:45.474Z,99873.63
2022-10-05T19:27:19.995Z,99879.16
2022-10-05T19:30:18.203Z,99880.27
2022-10-05T19:33:09.568Z,99882.24
2022-10-05T19:36:14.155Z,99883.23
2022-10-05T19:38:58.788Z,99884.64
2022-10-05T19:42:04.385Z,99883.83
2022-10-05T19:45:25.303Z,99885.19
2022-10-05T19:47:55.392Z,99894.20
2022-10-05T19:50:39.492Z,99898.34
2022-10-05T19:53:45.433Z,99902.12
2022-10-05T19:56:41.469Z,99903.39
2022-10-05T19:59:40.102Z,99907.38
2022-10-05T20:02:27.449Z,99913.48
2022-10-05T20:05:09.580Z,99912.33
2022-10-05T20:07:37.695Z,99913.09
2022-10-05T20:10:31.673Z,99919.42
2022-10-05T20:13:08.100Z,99920.81
2022-10-05T20:16:16.872Z,99919.58
2022-10-05T20:19:07.024Z,99925.77
2022-10-05T20:22:28.171Z,99929.50
2022-10-05T20:25:01.691Z,99934.67
2022-10-05T20:28:21.175Z,99936.23
2022-10-05T20:30:49.788Z,99932.58
2022-10-05T20:33:29.253Z,99937.69
2022-10-05T20:36:03.344Z,99939.16
2022-10-05T20:38:31.600Z,99941.05
2022-10-05T20:41:16.403Z,99939.30
2022-10-05T20:43:55.955Z,99946.52
2022-10-05T20:46:25.791Z,99947.52
2022-10-05T20:49:02.903Z,99948.76
2022-10-05T20:51:49.539Z,99951.80
2022-10-05T20:54:38.712Z,99956.95
2022-10-05T20:57:22.201Z,99957.96
2022-10-05T21:00:01.683Z,99961.46
2022-10-05T21:02:56.365Z,99959.88
2022-10-05T21:05:38.791Z,99955.55
2022-10-05T21:08:12.372Z,99956.52
2022-10-05T21:11:17.144Z,99954.98
2022-10-05T21:13:55.144Z,99958.77
2022-10-05T21:16:33.755Z,99958.09
2022-10-05T21:19:21.578Z,99959.00
2022-10-05T21:21:51.809Z,99960.85
2022-10-05T21:24:45.357Z,99967.93
2022-10-05T21:27:18.925Z,99963.38
2022-10-05T21:30:09.961Z,99970.99
2022-10-05T21:32:49.802Z,99978.57
2022-10-05T21:35:54.144Z,99980.27
2022-10-05T21:38:21.427Z,99984.64
2022-10-05T21:40:48.519Z,99981.80
2022-10-05T21:43:19.604Z,99981.79
2022-10-05T21:45:47.535Z,99985.42
2022-10-05T21:48:18.877Z,99987.27
2022-10-05T21:50:51.819Z,99991.39
2022-10-05T21:53:39.156Z,99994.73
2022-10-05T21:56:17.379Z,99994.00
2022-10-05T21:58:47.331Z,99996.31
2022-10-05T22:01:20.116Z,99993.23
2022-10-05T22:04:04.411Z,99998.55
2022-10-05T22:06:50.951Z,99993.58
2022-10-05T22:09:25.026Z,99998.77
2022-10-05T22:12:04.606Z,99999.63
2022-10-05T22:14:53.823Z,99999.06
2022-10-05T22:17:32.283Z,100002.05
2022-10-05T22:20:06.944Z,100007.48
2022-10-05T22:23:20.981Z,100005.27
2022-10-05T22:25:57.316Z,100012.30
2022-10-05T22:28:43.708Z,100010.81
2022-10-05T22:31:26.209Z,100008.98
2022-10-05T22:34:05.432Z,100012.59
2022-10-05T22:36:55.787Z,100010.52
2022-10-05T22:39:23.235Z,100012.00
2022-10-05T22:42:05.335Z,100012.63
2022-10-05T22:44:38.541Z,100018.02
2022-10-05T22:47:05.994Z,100013.98
2022-10-05T22:49:52.937Z,100022.08
2022-10-05T22:52:49.270Z,100022.14
2022-10-05T22:55:22.702Z,100026.13
2022-10-05T22:58:00.145Z,100027.99
2022-10-05T23:00:56.844Z,100026.48
2022-10-05T23:03:25.389Z,100028.41
2022-10-05T23:06:29.270Z,100031.94
2022-10-05T23:08:56.955Z,100033.17
2022-10-05T23:11:31.540Z,100030.88
2022-10-05T23:14:02.421Z,100034.35
2022-10-05T23:16:41.078Z,100039.12
2022-10-05T23:19:08.342Z,100043.73
2022-10-05T23:22:01.463Z,100042.62
2022-10-05T23:24:32.542Z,100044.34
2022-10-05T23:27:09.544Z,100043.40
2022-10-05T23:29:50.283Z,100044.45
2022-10-05T23:32:44.897Z,100043.77
2022-10-05T23:35:24.719Z,100040.70
2022-10-05T23:37:54.913Z,100045.55
2022-10-05T23:40:27.376Z,100046.71
2022-10-05T23:43:25.273Z,100048.11
2022-10-05T23:46:39.767Z,100057.45
2022-10-05T23:49:08.395Z,100061.92
2022-10-05T23:51:36.352Z,100059.55
2022-10-05T23:54:07.411Z,100058.05
2022-10-05T23:56:45.558Z,100060.91
2022-10-05T23:59:21.375Z,100066.98
